Impacts METAR Board
IDs:

KLZZ - Lampasas Arpt, TX, US

Updated at: 0900 UTC 26 May 2019
Potential Impact None Slight Moderate High
Time 25/21Z 25/22Z 25/23Z 26/00Z 26/01Z 26/02Z 26/03Z 26/04Z 26/05Z 26/06Z 26/07Z 26/08Z 26/09Z
Temp87 87 86 84 82 80 77 76 74 73 73 72 72
Dewpt69 69 70 68 68 68 67 65 66 67 67 66 66
Altim29.97 29.98 29.96 29.95 29.96 29.97 29.99 30.00 30.02 30.01 30.01 30.00 30.01
VIS10 10 10 10 10 10 10 10 10 10 10 10 10
CIG-- -- -- -- -- -- -- -- -- -- 23 -- 29
CoverSCTSCTSCTSCTCLRCLRCLRCLRCLRCLRBKNSCTBKN
FltCatVFRVFRVFRVFRVFRVFRVFRVFRVFRVFRMVFRVFRMVFR
WX--------------------------
WDir160160140150150160170180170170180170160
WSpd10 15 11 10 8 10 7 5 7 7 8 7 9
WGst20 23 16 15 -- -- -- -- -- -- 14 -- --
Raw hourly METARs
KLZZ 252055Z AUTO 16010G20KT 140V200 10SM SCT042 SCT060 31/21 A2997 RMK AO2 T03050205
KLZZ 252155Z AUTO 16015G23KT 10SM SCT042 SCT050 SCT065 31/21 A2998 RMK AO2 T03050206
KLZZ 252255Z AUTO 14011G16KT 10SM SCT040 SCT048 30/21 A2996 RMK AO2 T03000210
KLZZ 252355Z AUTO 15010G15KT 10SM SCT050 SCT065 29/20 A2995 RMK AO2 T02890202 10311 20268
KLZZ 260055Z AUTO 15008KT 10SM CLR 28/20 A2996 RMK AO2 T02760202
KLZZ 260155Z AUTO 16010KT 10SM CLR 27/20 A2997 RMK AO2 T02650200
KLZZ 260255Z AUTO 17007KT 10SM CLR 25/20 A2999 RMK AO2 T02510196
KLZZ 260355Z AUTO 18005KT 10SM CLR 24/19 A3000 RMK AO2 T02430186
KLZZ 260455Z AUTO 17007KT 10SM CLR 24/19 A3002 RMK AO2 T02350187
KLZZ 260555Z AUTO 17007KT 10SM CLR 23/19 A3001 RMK AO2 T02260192 10290 20226 403110220
KLZZ 260655Z AUTO 18008G14KT 10SM BKN023 23/20 A3001 RMK AO2 T02270195
KLZZ 260755Z AUTO 17007KT 10SM SCT027 22/19 A3000 RMK AO2 T02240191
KLZZ 260855Z AUTO 16009KT 10SM SCT023 BKN029 22/19 A3001 RMK AO2 T02200191